createdAt,value
2018-01-17T00:00:21.076Z,4.86
2018-01-17T00:01:21.141Z,4.92
2018-01-17T00:02:21.165Z,4.86
2018-01-17T00:03:21.204Z,4.89
2018-01-17T00:04:21.246Z,4.84
2018-01-17T00:05:21.290Z,4.83
2018-01-17T00:06:21.376Z,4.79
2018-01-17T00:07:21.376Z,4.79
2018-01-17T00:08:21.416Z,4.79
2018-01-17T00:09:21.462Z,4.84
2018-01-17T00:10:21.504Z,4.75
2018-01-17T00:11:21.565Z,4.76
2018-01-17T00:12:21.587Z,4.80
2018-01-17T00:13:21.628Z,4.83
2018-01-17T00:14:21.672Z,4.83
2018-01-17T00:15:21.713Z,4.88
2018-01-17T00:16:21.772Z,4.75
2018-01-17T00:17:21.810Z,4.84
2018-01-17T00:18:21.851Z,4.83
2018-01-17T00:19:21.883Z,4.76
2018-01-17T00:20:21.925Z,4.76
2018-01-17T00:21:21.984Z,4.73
2018-01-17T00:22:22.011Z,4.80
2018-01-17T00:23:22.054Z,4.75
2018-01-17T00:24:22.097Z,4.70
2018-01-17T00:25:22.137Z,4.75
2018-01-17T00:26:22.197Z,4.64
2018-01-17T00:27:22.227Z,4.75
2018-01-17T00:28:22.265Z,4.73
2018-01-17T00:29:22.308Z,4.62
2018-01-17T00:30:22.353Z,4.73
2018-01-17T00:31:22.427Z,4.64
2018-01-17T00:32:22.434Z,4.70
2018-01-17T00:33:22.479Z,4.65
2018-01-17T00:34:22.520Z,4.72
2018-01-17T00:35:22.568Z,4.67
2018-01-17T00:36:22.622Z,4.77
2018-01-17T00:37:22.649Z,4.79
2018-01-17T00:38:22.697Z,4.83
2018-01-17T00:39:22.749Z,4.86
2018-01-17T00:40:22.776Z,4.86
2018-01-17T00:41:22.819Z,4.77
2018-01-17T00:42:22.873Z,4.80
2018-01-17T00:43:22.902Z,4.84
2018-01-17T00:44:22.943Z,4.88
2018-01-17T00:45:22.986Z,4.91
2018-01-17T00:46:23.028Z,4.94
2018-01-17T00:47:23.095Z,4.98
2018-01-17T00:48:24.015Z,4.98
2018-01-17T00:49:23.156Z,5.04
2018-01-17T00:50:23.216Z,5.10
2018-01-17T00:51:23.246Z,5.10
2018-01-17T00:52:23.284Z,5.20
2018-01-17T00:53:23.324Z,5.28
2018-01-17T00:54:23.367Z,5.22
2018-01-17T00:55:23.429Z,5.25
2018-01-17T00:56:23.456Z,5.25
2018-01-17T00:57:23.494Z,5.31
2018-01-17T00:58:23.553Z,5.37
2018-01-17T00:59:23.584Z,5.49
2018-01-17T01:00:23.638Z,5.49
2018-01-17T01:01:23.670Z,5.55
2018-01-17T01:02:23.708Z,5.50
2018-01-17T01:03:23.765Z,5.55
2018-01-17T01:04:23.796Z,5.59
2018-01-17T01:05:23.835Z,5.57
2018-01-17T01:06:23.894Z,5.66
2018-01-17T01:07:23.919Z,5.66
2018-01-17T01:08:23.965Z,5.68
2018-01-17T01:09:24.006Z,5.77
2018-01-17T01:10:24.047Z,5.75
2018-01-17T01:11:24.102Z,5.73
2018-01-17T01:12:24.134Z,5.71
2018-01-17T01:13:24.177Z,5.68
2018-01-17T01:14:24.232Z,5.68
2018-01-17T01:15:24.262Z,5.70
2018-01-17T01:16:24.319Z,5.71
2018-01-17T01:17:24.342Z,5.74
2018-01-17T01:18:24.389Z,5.68
2018-01-17T01:19:24.432Z,5.63
2018-01-17T01:20:24.475Z,5.53
2018-01-17T01:21:24.534Z,5.59
2018-01-17T01:22:24.559Z,5.59
2018-01-17T01:23:24.604Z,5.64
2018-01-17T01:24:24.661Z,5.68
2018-01-17T01:25:24.687Z,5.70
2018-01-17T01:26:24.732Z,5.81
2018-01-17T01:27:24.781Z,5.77
2018-01-17T01:28:24.815Z,5.88
2018-01-17T01:29:24.877Z,5.93
2018-01-17T01:30:24.902Z,5.82
2018-01-17T01:31:24.941Z,5.86
2018-01-17T01:32:25.008Z,5.85
2018-01-17T01:33:25.029Z,5.78
2018-01-17T01:34:25.112Z,5.71
2018-01-17T01:35:25.117Z,5.88
2018-01-17T01:36:25.158Z,5.92
2018-01-17T01:37:25.201Z,5.92
2018-01-17T01:38:25.249Z,6.10
2018-01-17T01:39:25.301Z,5.95
2018-01-17T01:40:25.329Z,5.93
2018-01-17T01:41:25.379Z,5.93
2018-01-17T01:42:25.431Z,5.89
2018-01-17T01:43:25.463Z,5.89
2018-01-17T01:44:25.513Z,5.85
2018-01-17T01:45:25.539Z,5.83
2018-01-17T01:46:25.587Z,5.75
2018-01-17T01:47:25.630Z,5.71
2018-01-17T01:48:25.688Z,5.64
2018-01-17T01:49:25.718Z,5.55
2018-01-17T01:50:25.774Z,5.48
2018-01-17T01:51:25.808Z,5.43
2018-01-17T01:52:25.846Z,5.40
2018-01-17T01:53:25.888Z,5.32
2018-01-17T01:54:25.944Z,5.19
2018-01-17T01:55:25.974Z,5.19
2018-01-17T01:56:26.032Z,5.19
2018-01-17T01:57:26.061Z,5.12
2018-01-17T01:58:26.102Z,5.10
2018-01-17T01:59:26.143Z,5.09
2018-01-17T02:00:26.202Z,5.07
2018-01-17T02:01:26.227Z,5.05
2018-01-17T02:02:26.272Z,5.02
2018-01-17T02:03:26.317Z,5.01
2018-01-17T02:04:26.354Z,4.98
2018-01-17T02:05:26.416Z,4.94
2018-01-17T02:06:26.441Z,4.86
2018-01-17T02:07:26.486Z,4.86
2018-01-17T02:08:26.530Z,4.80
2018-01-17T02:09:26.567Z,4.64
2018-01-17T02:10:26.630Z,4.59
2018-01-17T02:11:26.669Z,4.59
2018-01-17T02:12:26.694Z,4.39
2018-01-17T02:13:26.736Z,4.42
2018-01-17T02:14:26.780Z,4.40
2018-01-17T02:15:26.839Z,4.32
2018-01-17T02:16:26.864Z,4.16
2018-01-17T02:17:26.907Z,4.21
2018-01-17T02:18:26.954Z,4.10
2018-01-17T02:19:26.991Z,4.14
2018-01-17T02:20:27.051Z,4.16
2018-01-17T02:21:27.075Z,4.08
2018-01-17T02:22:27.150Z,4.08
2018-01-17T02:23:27.160Z,4.06
2018-01-17T02:24:27.202Z,4.03
2018-01-17T02:25:27.243Z,4.10
2018-01-17T02:26:27.286Z,3.92
2018-01-17T02:27:27.343Z,3.94
2018-01-17T02:28:27.374Z,3.96
2018-01-17T02:29:27.411Z,3.88
2018-01-17T02:30:27.470Z,3.98
2018-01-17T02:31:27.498Z,3.89
2018-01-17T02:32:27.538Z,4.06
2018-01-17T02:33:27.595Z,3.88
2018-01-17T02:34:27.623Z,4.01
2018-01-17T02:35:27.682Z,4.03
2018-01-17T02:36:27.705Z,3.98
2018-01-17T02:37:27.748Z,4.04
2018-01-17T02:38:27.791Z,4.01
2018-01-17T02:39:27.837Z,4.03
2018-01-17T02:40:27.890Z,4.03
2018-01-17T02:41:27.912Z,4.06
2018-01-17T02:42:27.960Z,4.14
2018-01-17T02:43:28.029Z,4.03
2018-01-17T02:44:28.038Z,4.01
2018-01-17T02:45:28.086Z,4.12
2018-01-17T02:46:28.132Z,4.04
2018-01-17T02:47:28.165Z,4.03
2018-01-17T02:48:28.221Z,3.97
2018-01-17T02:49:28.248Z,4.04
2018-01-17T02:50:28.288Z,4.00
2018-01-17T02:51:28.346Z,3.90
2018-01-17T02:52:28.371Z,3.94
2018-01-17T02:53:28.413Z,4.01
2018-01-17T02:54:28.468Z,4.04
2018-01-17T02:55:28.497Z,4.04
2018-01-17T02:56:28.538Z,4.04
2018-01-17T02:57:28.581Z,4.03
2018-01-17T02:58:28.637Z,4.04
2018-01-17T02:59:28.698Z,4.06
2018-01-17T03:00:28.706Z,4.12
2018-01-17T03:01:28.749Z,4.07
2018-01-17T03:02:28.788Z,4.15
2018-01-17T03:03:28.829Z,4.16
2018-01-17T03:04:28.906Z,4.10
2018-01-17T03:05:28.922Z,4.10
2018-01-17T03:06:29.009Z,4.10
2018-01-17T03:07:29.002Z,4.03
2018-01-17T03:08:29.040Z,4.03
2018-01-17T03:09:29.095Z,3.98
2018-01-17T03:10:29.121Z,4.03
2018-01-17T03:11:29.179Z,4.03
2018-01-17T03:12:29.206Z,4.04
2018-01-17T03:13:29.246Z,4.01
2018-01-17T03:14:29.290Z,4.14
2018-01-17T03:15:29.331Z,4.03
2018-01-17T03:16:29.388Z,4.01
2018-01-17T03:17:29.416Z,4.04
2018-01-17T03:18:29.456Z,4.03
2018-01-17T03:19:29.498Z,4.00
2018-01-17T03:20:29.539Z,4.00
2018-01-17T03:21:29.602Z,4.04
2018-01-17T03:22:29.624Z,3.98
2018-01-17T03:23:29.711Z,4.01
2018-01-17T03:24:29.705Z,4.00
2018-01-17T03:25:29.749Z,3.98
2018-01-17T03:26:29.824Z,4.03
2018-01-17T03:27:29.832Z,4.00
2018-01-17T03:28:29.874Z,4.03
2018-01-17T03:29:29.915Z,4.00
2018-01-17T03:30:29.957Z,4.00
2018-01-17T03:31:30.032Z,4.03
2018-01-17T03:32:30.040Z,3.96
2018-01-17T03:33:30.084Z,3.98
2018-01-17T03:34:30.124Z,3.94
2018-01-17T03:35:30.167Z,3.89
2018-01-17T03:36:30.242Z,3.82
2018-01-17T03:37:30.253Z,3.79
2018-01-17T03:38:30.300Z,3.71
2018-01-17T03:39:30.334Z,3.62
2018-01-17T03:40:30.375Z,3.53
2018-01-17T03:41:30.453Z,3.33
2018-01-17T03:42:30.461Z,3.30
2018-01-17T03:43:30.501Z,3.13
2018-01-17T03:44:30.544Z,2.97
2018-01-17T03:45:30.583Z,2.89
2018-01-17T03:46:30.662Z,2.71
2018-01-17T03:47:30.668Z,2.63
2018-01-17T03:48:30.708Z,2.51
2018-01-17T03:49:30.751Z,2.23
2018-01-17T03:50:30.796Z,2.12
2018-01-17T03:51:30.873Z,2.10
2018-01-17T03:52:30.875Z,2.02
2018-01-17T03:53:30.916Z,2.04
2018-01-17T03:54:30.957Z,1.91
2018-01-17T03:55:31.000Z,1.90
2018-01-17T03:56:31.072Z,1.85
2018-01-17T03:57:32.007Z,1.82
2018-01-17T03:58:31.121Z,1.76
2018-01-17T03:59:31.166Z,1.90
2018-01-17T04:00:31.203Z,1.91
2018-01-17T04:01:31.264Z,2.04
2018-01-17T04:02:31.286Z,2.08
2018-01-17T04:03:31.326Z,2.10
2018-01-17T04:04:31.383Z,2.17
2018-01-17T04:05:31.455Z,2.20
2018-01-17T04:06:31.450Z,2.19
2018-01-17T04:07:31.491Z,2.22
2018-01-17T04:08:31.550Z,2.17
2018-01-17T04:09:31.587Z,2.23
2018-01-17T04:10:31.613Z,2.23
2018-01-17T04:11:31.656Z,2.41
2018-01-17T04:12:31.692Z,2.35
2018-01-17T04:13:31.735Z,2.40
2018-01-17T04:14:31.796Z,2.45
2018-01-17T04:15:31.817Z,2.37
2018-01-17T04:16:31.856Z,2.40
2018-01-17T04:17:31.903Z,2.40
2018-01-17T04:18:31.956Z,2.48
2018-01-17T04:19:31.984Z,2.55
2018-01-17T04:20:32.026Z,2.46
2018-01-17T04:21:32.100Z,2.59
2018-01-17T04:22:32.102Z,2.63
2018-01-17T04:23:32.161Z,2.48
2018-01-17T04:24:32.204Z,2.63
2018-01-17T04:25:32.232Z,2.64
2018-01-17T04:26:32.272Z,2.70
2018-01-17T04:27:32.306Z,2.95
2018-01-17T04:28:32.348Z,3.00
2018-01-17T04:29:32.409Z,3.18
2018-01-17T04:30:32.430Z,3.24
2018-01-17T04:31:32.473Z,3.30
2018-01-17T04:32:32.521Z,3.33
2018-01-17T04:33:32.553Z,3.36
2018-01-17T04:34:32.612Z,3.39
2018-01-17T04:35:32.635Z,3.50
2018-01-17T04:36:32.675Z,3.36
2018-01-17T04:37:32.716Z,3.52
2018-01-17T04:38:32.776Z,3.79
2018-01-17T04:39:32.799Z,3.85
2018-01-17T04:40:32.864Z,3.85
2018-01-17T04:41:32.881Z,3.88
2018-01-17T04:42:32.924Z,3.79
2018-01-17T04:43:32.969Z,3.86
2018-01-17T04:44:33.006Z,3.92
2018-01-17T04:45:33.063Z,3.85
2018-01-17T04:46:33.088Z,3.94
2018-01-17T04:47:33.128Z,3.89
2018-01-17T04:48:33.171Z,3.89
2018-01-17T04:49:33.211Z,3.90
2018-01-17T04:50:33.271Z,3.78
2018-01-17T04:51:33.298Z,3.80
2018-01-17T04:52:33.336Z,3.78
2018-01-17T04:53:33.382Z,3.80
2018-01-17T04:54:33.420Z,3.86
2018-01-17T04:55:33.476Z,3.92
2018-01-17T04:56:33.506Z,3.97
2018-01-17T04:57:33.540Z,4.00
2018-01-17T04:58:33.583Z,4.06
2018-01-17T04:59:33.630Z,3.97
2018-01-17T05:00:33.690Z,3.98
2018-01-17T05:01:33.706Z,4.07
2018-01-17T05:02:33.755Z,4.01
2018-01-17T05:03:33.790Z,4.04
2018-01-17T05:04:33.831Z,4.06
2018-01-17T05:05:33.889Z,4.14
2018-01-17T05:06:33.914Z,4.08
2018-01-17T05:07:33.956Z,4.12
2018-01-17T05:08:34.006Z,4.10
2018-01-17T05:09:34.038Z,4.15
2018-01-17T05:10:34.100Z,3.98
2018-01-17T05:11:34.124Z,4.03
2018-01-17T05:12:34.182Z,4.01
2018-01-17T05:13:34.203Z,3.98
2018-01-17T05:14:34.248Z,3.90
2018-01-17T05:15:34.284Z,3.89
2018-01-17T05:16:34.335Z,4.03
2018-01-17T05:17:34.385Z,3.96
2018-01-17T05:18:34.412Z,3.97
2018-01-17T05:19:34.456Z,3.90
2018-01-17T05:20:34.498Z,4.01
2018-01-17T05:21:34.536Z,4.04
2018-01-17T05:22:34.594Z,4.04
2018-01-17T05:23:34.619Z,4.08
2018-01-17T05:24:34.664Z,4.19
2018-01-17T05:25:34.703Z,4.19
2018-01-17T05:26:34.745Z,4.08
2018-01-17T05:27:34.828Z,4.16
2018-01-17T05:28:34.826Z,4.18
2018-01-17T05:29:34.870Z,4.37
2018-01-17T05:30:34.911Z,4.14
2018-01-17T05:31:34.952Z,4.26
2018-01-17T05:32:35.013Z,4.25
2018-01-17T05:33:35.058Z,4.21
2018-01-17T05:34:35.077Z,4.22
2018-01-17T05:35:35.118Z,4.19
2018-01-17T05:36:35.160Z,4.24
2018-01-17T05:37:35.205Z,4.21
2018-01-17T05:38:35.271Z,4.19
2018-01-17T05:39:35.286Z,4.28
2018-01-17T05:40:35.326Z,4.22
2018-01-17T05:41:35.369Z,4.29
2018-01-17T05:42:35.418Z,4.32
2018-01-17T05:43:35.474Z,4.33
2018-01-17T05:44:35.494Z,4.34
2018-01-17T05:45:35.536Z,4.26
2018-01-17T05:46:35.578Z,4.28
2018-01-17T05:47:35.619Z,4.40
2018-01-17T05:48:35.678Z,4.42
2018-01-17T05:49:35.702Z,4.40
2018-01-17T05:50:35.744Z,4.42
2018-01-17T05:51:35.786Z,4.51
2018-01-17T05:52:35.826Z,4.40
2018-01-17T05:53:35.930Z,4.52
2018-01-17T05:54:35.912Z,4.54
2018-01-17T05:55:35.954Z,4.52
2018-01-17T05:56:35.995Z,4.52
2018-01-17T05:57:36.036Z,4.50
2018-01-17T05:58:36.101Z,4.37
2018-01-17T05:59:36.136Z,4.47
2018-01-17T06:00:36.161Z,4.39
2018-01-17T06:01:36.208Z,4.47
2018-01-17T06:02:36.248Z,4.54
2018-01-17T06:03:36.287Z,4.51
2018-01-17T06:04:36.362Z,4.44
2018-01-17T06:05:36.370Z,4.58
2018-01-17T06:06:36.412Z,4.64
2018-01-17T06:07:36.458Z,4.61
2018-01-17T06:08:36.495Z,4.44
2018-01-17T06:09:36.553Z,4.57
2018-01-17T06:10:36.603Z,4.58
2018-01-17T06:11:36.622Z,4.67
2018-01-17T06:12:37.508Z,4.67
2018-01-17T06:13:36.710Z,4.61
2018-01-17T06:14:36.746Z,4.57
2018-01-17T06:15:36.803Z,4.69
2018-01-17T06:16:36.832Z,4.67
2018-01-17T06:17:36.877Z,4.46
2018-01-17T06:18:36.916Z,4.51
2018-01-17T06:19:36.957Z,4.54
2018-01-17T06:20:37.014Z,4.44
2018-01-17T06:21:37.039Z,4.54
2018-01-17T06:22:37.082Z,4.67
2018-01-17T06:23:37.126Z,4.69
2018-01-17T06:24:37.164Z,4.72
2018-01-17T06:25:37.228Z,4.72
2018-01-17T06:26:37.248Z,4.75
2018-01-17T06:27:37.321Z,4.70
2018-01-17T06:28:37.334Z,4.62
2018-01-17T06:29:37.372Z,4.51
2018-01-17T06:30:37.433Z,4.58
2018-01-17T06:31:37.458Z,4.59
2018-01-17T06:32:37.498Z,4.64
2018-01-17T06:33:37.542Z,4.62
2018-01-17T06:34:37.583Z,4.64
2018-01-17T06:35:37.641Z,4.47
2018-01-17T06:36:37.667Z,4.51
2018-01-17T06:37:37.709Z,4.39
2018-01-17T06:38:37.751Z,4.42
2018-01-17T06:39:37.792Z,4.40
2018-01-17T06:40:37.848Z,4.51
2018-01-17T06:41:37.890Z,4.43
2018-01-17T06:42:37.917Z,4.58
2018-01-17T06:43:37.962Z,4.62
2018-01-17T06:44:38.003Z,4.57
2018-01-17T06:45:38.043Z,4.61
2018-01-17T06:46:38.101Z,4.58
2018-01-17T06:47:38.126Z,4.62
2018-01-17T06:48:38.170Z,4.69
2018-01-17T06:49:38.212Z,4.69
2018-01-17T06:50:38.546Z,4.72
2018-01-17T06:51:38.293Z,4.58
2018-01-17T06:52:38.338Z,4.52
2018-01-17T06:53:38.381Z,4.52
2018-01-17T06:54:38.419Z,4.61
2018-01-17T06:55:38.466Z,4.50
2018-01-17T06:56:38.518Z,4.52
2018-01-17T06:57:38.568Z,4.46
2018-01-17T06:58:38.587Z,4.58
2018-01-17T06:59:38.629Z,4.47
2018-01-17T07:00:38.671Z,4.62
2018-01-17T07:01:38.728Z,4.58
2018-01-17T07:02:38.770Z,4.64
2018-01-17T07:03:38.802Z,4.64
2018-01-17T07:04:38.837Z,4.79
2018-01-17T07:05:38.879Z,4.86
2018-01-17T07:06:38.924Z,4.70
2018-01-17T07:07:38.979Z,4.76
2018-01-17T07:08:39.007Z,4.79
2018-01-17T07:09:39.050Z,4.76
2018-01-17T07:10:39.096Z,4.75
2018-01-17T07:11:39.149Z,4.75
2018-01-17T07:12:39.191Z,4.70
2018-01-17T07:13:39.213Z,4.65
2018-01-17T07:14:40.000Z,4.67
2018-01-17T07:15:39.305Z,4.65
2018-01-17T07:16:39.339Z,4.70
2018-01-17T07:17:39.399Z,4.67
2018-01-17T07:18:39.424Z,4.64
2018-01-17T07:19:39.466Z,4.61
2018-01-17T07:20:39.508Z,4.58
2018-01-17T07:21:39.584Z,4.62
2018-01-17T07:22:39.591Z,4.65
2018-01-17T07:23:39.636Z,4.69
2018-01-17T07:24:39.683Z,4.65
2018-01-17T07:25:39.716Z,4.64
2018-01-17T07:26:39.784Z,4.59
2018-01-17T07:27:39.803Z,4.47
2018-01-17T07:28:39.859Z,4.52
2018-01-17T07:29:39.886Z,4.64
2018-01-17T07:30:39.926Z,4.65
2018-01-17T07:31:39.971Z,4.64
2018-01-17T07:32:40.009Z,4.54
2018-01-17T07:33:40.071Z,4.61
2018-01-17T07:34:40.095Z,4.50
2018-01-17T07:35:40.145Z,4.50
2018-01-17T07:36:40.177Z,4.61
2018-01-17T07:37:40.222Z,4.62
2018-01-17T07:38:40.281Z,4.64
2018-01-17T07:39:40.305Z,4.50
2018-01-17T07:40:40.344Z,4.44
2018-01-17T07:41:40.386Z,4.39
2018-01-17T07:42:40.429Z,4.43
2018-01-17T07:43:40.488Z,4.39
2018-01-17T07:44:40.510Z,4.37
2018-01-17T07:45:40.555Z,4.51
2018-01-17T07:46:40.600Z,4.40
2018-01-17T07:47:40.638Z,4.46
2018-01-17T07:48:40.700Z,4.55
2018-01-17T07:49:40.722Z,4.47
2018-01-17T07:50:40.770Z,4.46
2018-01-17T07:51:40.813Z,4.57
2018-01-17T07:52:40.847Z,4.52
2018-01-17T07:53:40.911Z,4.51
2018-01-17T07:54:40.946Z,4.51
2018-01-17T07:55:40.973Z,4.51
2018-01-17T07:56:41.017Z,4.51
2018-01-17T07:57:41.065Z,4.51
2018-01-17T07:58:41.098Z,4.51
2018-01-17T07:59:41.159Z,4.52
2018-01-17T08:00:41.181Z,4.51
2018-01-17T08:01:41.224Z,4.52
2018-01-17T08:02:41.266Z,4.51
2018-01-17T08:03:41.308Z,4.52
2018-01-17T08:04:41.368Z,4.36
2018-01-17T08:05:41.392Z,4.37
2018-01-17T08:06:41.435Z,4.37
2018-01-17T08:07:41.997Z,4.37
2018-01-17T08:08:41.519Z,4.47
2018-01-17T08:09:41.579Z,4.54
2018-01-17T08:10:41.604Z,4.36
2018-01-17T08:11:41.643Z,4.50
2018-01-17T08:12:41.686Z,4.37
2018-01-17T08:13:41.728Z,4.43
2018-01-17T08:14:41.789Z,4.50
2018-01-17T08:15:41.810Z,4.51
2018-01-17T08:16:41.853Z,4.46
2018-01-17T08:17:41.896Z,4.51
2018-01-17T08:18:41.939Z,4.51
2018-01-17T08:19:42.017Z,4.55
2018-01-17T08:20:42.019Z,4.51
2018-01-17T08:21:42.064Z,4.46
2018-01-17T08:22:42.104Z,4.50
2018-01-17T08:23:42.146Z,4.65
2018-01-17T08:24:42.208Z,4.67
2018-01-17T08:25:42.245Z,4.65
2018-01-17T08:26:42.272Z,4.79
2018-01-17T08:27:42.323Z,4.76
2018-01-17T08:28:42.357Z,4.83
2018-01-17T08:29:42.400Z,4.83
2018-01-17T08:30:42.456Z,4.70
2018-01-17T08:31:42.481Z,4.80
2018-01-17T08:32:42.525Z,4.83
2018-01-17T08:33:42.565Z,4.92
2018-01-17T08:34:42.614Z,4.89
2018-01-17T08:35:42.666Z,4.77
2018-01-17T08:36:42.691Z,4.80
2018-01-17T08:37:42.738Z,4.73
2018-01-17T08:38:42.776Z,4.52
2018-01-17T08:39:42.818Z,4.24
2018-01-17T08:40:42.878Z,3.89
2018-01-17T08:41:42.902Z,3.57
2018-01-17T08:42:42.947Z,3.34
2018-01-17T08:43:42.988Z,3.21
2018-01-17T08:44:43.028Z,3.21
2018-01-17T08:45:43.095Z,3.15
2018-01-17T08:46:43.148Z,3.07
2018-01-17T08:47:43.155Z,3.10
2018-01-17T08:48:43.196Z,3.09
2018-01-17T08:49:43.239Z,3.06
2018-01-17T08:50:43.280Z,3.12
2018-01-17T08:51:43.357Z,3.10
2018-01-17T08:54:19.145Z,3.09
2018-01-17T08:55:19.169Z,3.21
2018-01-17T08:56:19.209Z,3.10
2018-01-17T08:57:19.267Z,3.13
2018-01-17T08:58:19.290Z,3.07
2018-01-17T08:59:19.341Z,3.06
2018-01-17T09:00:19.376Z,2.98
2018-01-17T09:01:19.416Z,3.02
2018-01-17T09:02:19.488Z,3.02
2018-01-17T09:03:19.499Z,3.00
2018-01-17T09:04:19.540Z,3.06
2018-01-17T09:05:19.588Z,2.94
2018-01-17T09:06:19.627Z,2.97
2018-01-17T09:07:19.680Z,3.12
2018-01-17T09:08:19.710Z,3.13
2018-01-17T09:09:19.745Z,3.33
2018-01-17T09:10:19.787Z,3.34
2018-01-17T09:11:19.833Z,3.36
2018-01-17T09:12:19.887Z,3.42
2018-01-17T09:13:19.926Z,3.50
2018-01-17T09:14:19.957Z,3.52
2018-01-17T09:15:19.995Z,3.57
2018-01-17T09:16:20.034Z,3.49
2018-01-17T09:17:20.093Z,3.52
2018-01-17T09:18:20.136Z,3.53
2018-01-17T09:19:20.159Z,3.49
2018-01-17T09:20:20.205Z,3.54
2018-01-17T09:21:20.242Z,3.49
2018-01-17T09:22:20.285Z,3.50
2018-01-17T09:23:20.339Z,3.49
2018-01-17T09:24:20.366Z,3.60
2018-01-17T09:25:20.405Z,3.64
2018-01-17T09:26:20.451Z,3.52
2018-01-17T09:27:20.491Z,3.60
2018-01-17T09:28:20.567Z,3.57
2018-01-17T09:29:20.576Z,3.60
2018-01-17T09:30:20.612Z,3.46
2018-01-17T09:31:20.655Z,3.57
2018-01-17T09:32:20.699Z,3.54
2018-01-17T09:33:20.770Z,3.54
2018-01-17T09:34:20.776Z,3.47
2018-01-17T09:35:20.820Z,3.50
2018-01-17T09:36:20.860Z,3.50
2018-01-17T09:37:20.901Z,3.44
2018-01-17T09:38:20.976Z,3.50
2018-01-17T09:39:20.986Z,3.60
2018-01-17T09:40:21.029Z,3.57
2018-01-17T09:41:21.070Z,3.60
2018-01-17T09:42:21.111Z,3.68
2018-01-17T09:43:21.184Z,3.72
2018-01-17T09:44:21.194Z,3.79
2018-01-17T09:45:21.232Z,3.85
2018-01-17T09:46:21.274Z,3.83
2018-01-17T09:47:21.319Z,3.90
2018-01-17T09:48:21.397Z,4.01
2018-01-17T09:49:21.396Z,4.00
2018-01-17T09:50:21.446Z,4.04
2018-01-17T09:51:21.482Z,4.01
2018-01-17T09:52:21.522Z,4.03
2018-01-17T09:53:21.579Z,4.06
2018-01-17T09:54:21.605Z,3.98
2018-01-17T09:55:21.646Z,3.88
2018-01-17T09:56:21.709Z,3.72
2018-01-17T09:57:21.728Z,3.57
2018-01-17T09:58:21.773Z,3.54
2018-01-17T09:59:21.832Z,3.31
2018-01-17T10:00:21.855Z,3.24
2018-01-17T10:01:21.911Z,3.20
2018-01-17T10:02:21.936Z,3.21
2018-01-17T10:03:21.978Z,3.34
2018-01-17T10:04:22.019Z,3.34
2018-01-17T10:05:22.066Z,3.34
2018-01-17T10:06:22.124Z,3.31
2018-01-17T10:07:22.142Z,3.54
2018-01-17T10:08:22.187Z,3.75
2018-01-17T10:09:22.244Z,4.15
2018-01-17T10:10:22.271Z,4.50
2018-01-17T10:11:22.327Z,5.01
2018-01-17T10:12:22.357Z,5.48
2018-01-17T10:13:22.392Z,5.74
2018-01-17T10:14:22.435Z,6.10
2018-01-17T10:15:22.477Z,6.51
2018-01-17T10:16:22.646Z,6.66
2018-01-17T10:17:22.562Z,6.81
2018-01-17T10:18:22.607Z,6.35
2018-01-17T10:19:22.651Z,6.14
2018-01-17T10:20:22.697Z,6.32
2018-01-17T10:21:22.774Z,6.35
2018-01-17T10:22:22.788Z,6.38
2018-01-17T10:23:22.832Z,6.53
2018-01-17T10:24:22.879Z,6.63
2018-01-17T10:25:22.929Z,6.83
2018-01-17T10:26:22.984Z,6.94
2018-01-17T10:27:23.013Z,7.29
2018-01-17T10:28:23.058Z,7.26
2018-01-17T10:29:23.111Z,7.29
2018-01-17T10:30:23.171Z,7.13
2018-01-17T10:31:23.199Z,7.16
2018-01-17T10:32:23.262Z,7.41
2018-01-17T10:33:23.290Z,7.93
2018-01-17T10:34:23.337Z,8.15
2018-01-17T10:35:23.392Z,8.28
2018-01-17T10:36:23.449Z,8.21
2018-01-17T10:37:23.497Z,8.33
2018-01-17T10:38:23.526Z,8.55
2018-01-17T10:39:23.574Z,8.35
2018-01-17T10:40:23.622Z,8.40
2018-01-17T10:41:23.706Z,8.72
2018-01-17T10:42:23.719Z,8.26
2018-01-17T10:43:23.771Z,8.36
2018-01-17T10:44:23.821Z,7.94
2018-01-17T10:45:23.879Z,7.99
2018-01-17T10:46:23.927Z,7.69
2018-01-17T10:47:23.959Z,7.16
2018-01-17T10:48:24.024Z,7.60
2018-01-17T10:49:24.056Z,7.84
2018-01-17T10:50:24.103Z,7.60
2018-01-17T10:51:24.151Z,7.63
2018-01-17T10:52:24.202Z,7.41
2018-01-17T10:53:24.263Z,7.63
2018-01-17T10:54:24.293Z,7.63
2018-01-17T10:55:24.340Z,7.71
2018-01-17T10:56:24.389Z,7.94
2018-01-17T10:57:24.444Z,7.79
2018-01-17T10:58:24.501Z,7.50
2018-01-17T10:59:24.534Z,7.38
2018-01-17T11:00:24.576Z,7.09
2018-01-17T11:01:24.620Z,7.04
2018-01-17T11:02:24.675Z,7.29
2018-01-17T11:03:24.754Z,7.26
2018-01-17T11:04:24.760Z,7.12
2018-01-17T11:05:24.807Z,7.13
2018-01-17T11:06:24.856Z,6.83
2018-01-17T11:07:24.901Z,6.63
2018-01-17T11:08:24.977Z,6.48
2018-01-17T11:09:24.991Z,6.51
2018-01-17T11:10:25.040Z,6.47
2018-01-17T11:11:25.084Z,6.35
2018-01-17T11:12:25.131Z,6.22
2018-01-17T11:13:25.207Z,6.19
2018-01-17T11:14:25.221Z,6.10
2018-01-17T11:15:25.266Z,6.19
2018-01-17T11:16:25.310Z,6.03
2018-01-17T11:17:25.357Z,5.83
2018-01-17T11:18:25.433Z,5.66
2018-01-17T11:19:25.446Z,5.56
2018-01-17T11:20:25.488Z,5.56
2018-01-17T11:21:25.536Z,5.53
2018-01-17T11:22:25.577Z,5.45
2018-01-17T11:23:25.641Z,5.38
2018-01-17T11:24:25.684Z,5.23
2018-01-17T11:25:25.711Z,5.04
2018-01-17T11:26:25.757Z,4.70
2018-01-17T11:27:25.804Z,4.50
2018-01-17T11:28:25.842Z,4.32
2018-01-17T11:29:25.920Z,3.94
2018-01-17T11:30:25.929Z,3.65
2018-01-17T11:31:25.972Z,3.25
2018-01-17T11:32:26.017Z,2.91
2018-01-17T11:33:26.062Z,2.74
2018-01-17T11:34:26.138Z,2.74
2018-01-17T11:35:26.148Z,2.66
2018-01-17T11:36:26.189Z,2.59
2018-01-17T11:37:26.232Z,2.59
2018-01-17T11:38:26.274Z,2.41
2018-01-17T11:39:26.350Z,2.28
2018-01-17T11:40:26.359Z,2.19
2018-01-17T11:41:26.401Z,2.08
2018-01-17T11:42:26.446Z,1.97
2018-01-17T11:43:26.484Z,1.93
2018-01-17T11:44:26.544Z,1.93
2018-01-17T11:45:26.571Z,1.91
2018-01-17T11:46:26.625Z,1.94
2018-01-17T11:47:26.651Z,1.94
2018-01-17T11:48:26.693Z,2.06
2018-01-17T11:49:26.734Z,2.09
2018-01-17T11:50:26.775Z,2.20
2018-01-17T11:51:26.833Z,2.23
2018-01-17T11:52:26.874Z,2.27
2018-01-17T11:53:27.815Z,2.27
2018-01-17T11:54:26.939Z,2.23
2018-01-17T11:55:26.981Z,2.35
2018-01-17T11:56:27.029Z,2.30
2018-01-17T11:57:27.141Z,2.22
2018-01-17T11:58:27.107Z,2.26
2018-01-17T11:59:27.153Z,2.20
2018-01-17T12:00:27.191Z,2.12
2018-01-17T12:01:27.227Z,2.06
2018-01-17T12:02:27.302Z,2.04
2018-01-17T12:03:27.309Z,2.04
2018-01-17T12:04:27.351Z,2.02
2018-01-17T12:05:27.392Z,1.99
2018-01-17T12:06:27.446Z,1.94
2018-01-17T12:07:27.657Z,1.98
2018-01-17T12:08:27.515Z,1.97
2018-01-17T12:09:27.557Z,2.13
2018-01-17T12:10:27.600Z,2.12
2018-01-17T12:11:27.641Z,2.23
2018-01-17T12:12:27.740Z,2.12
2018-01-17T12:13:27.737Z,2.15
2018-01-17T12:14:27.762Z,2.22
2018-01-17T12:15:27.804Z,2.20
2018-01-17T12:16:27.842Z,2.13
2018-01-17T12:17:27.882Z,2.17
2018-01-17T12:18:27.941Z,2.22
2018-01-17T12:19:27.967Z,2.27
2018-01-17T12:20:28.009Z,2.35
2018-01-17T12:21:28.053Z,2.34
2018-01-17T12:22:28.087Z,2.37
2018-01-17T12:23:28.146Z,2.51
2018-01-17T12:24:28.173Z,2.63
2018-01-17T12:25:28.210Z,2.56
2018-01-17T12:26:28.251Z,2.71
2018-01-17T12:27:28.292Z,2.85
2018-01-17T12:28:28.812Z,2.97
2018-01-17T12:29:28.371Z,3.06
2018-01-17T12:30:28.417Z,3.21
2018-01-17T12:31:28.457Z,3.21
2018-01-17T12:32:28.510Z,3.24
2018-01-17T12:33:28.572Z,3.30
2018-01-17T12:34:28.582Z,3.33
2018-01-17T12:35:28.624Z,3.36
2018-01-17T12:36:28.669Z,3.39
2018-01-17T12:37:28.709Z,3.39
2018-01-17T12:38:28.786Z,3.44
2018-01-17T12:39:28.798Z,3.34
2018-01-17T12:40:28.831Z,3.36
2018-01-17T12:41:28.872Z,3.39
2018-01-17T12:42:28.914Z,3.54
2018-01-17T12:43:30.811Z,3.68
2018-01-17T12:44:29.003Z,3.85
2018-01-17T12:45:29.039Z,3.97
2018-01-17T12:46:29.082Z,4.01
2018-01-17T12:47:29.124Z,4.01
2018-01-17T12:48:29.205Z,4.07
2018-01-17T12:49:29.208Z,4.03
2018-01-17T12:50:29.250Z,4.01
2018-01-17T12:51:29.296Z,3.98
2018-01-17T12:52:29.338Z,4.06
2018-01-17T12:53:29.398Z,4.10
2018-01-17T12:54:29.424Z,4.07
2018-01-17T12:55:30.312Z,4.04
2018-01-17T12:56:29.507Z,4.12
2018-01-17T12:57:29.549Z,4.01
2018-01-17T12:58:29.591Z,4.04
2018-01-17T12:59:29.651Z,4.00
2018-01-17T13:00:29.708Z,4.00
2018-01-17T13:01:29.718Z,4.04
2018-01-17T13:02:29.762Z,4.10
2018-01-17T13:03:29.803Z,4.08
2018-01-17T13:04:29.843Z,4.15
2018-01-17T13:05:29.919Z,4.29
2018-01-17T13:06:29.928Z,4.24
2018-01-17T13:07:29.973Z,4.19
2018-01-17T13:08:30.022Z,4.12
2018-01-17T13:09:30.062Z,4.15
2018-01-17T13:10:30.116Z,4.19
2018-01-17T13:11:30.140Z,4.28
2018-01-17T13:12:30.182Z,4.24
2018-01-17T13:13:30.229Z,4.24
2018-01-17T13:14:30.266Z,4.22
2018-01-17T13:15:30.348Z,3.98
2018-01-17T13:16:30.352Z,4.00
2018-01-17T13:17:30.440Z,4.03
2018-01-17T13:18:30.436Z,4.00
2018-01-17T13:19:30.478Z,3.94
2018-01-17T13:20:30.539Z,4.00